Time;durP1;ratioP1;P1;durP2;ratioP2;P2;SDS_P1;SDS_P2;PMS_P1;PMS_P2;Temp;Humidity;BMP_temperature;BMP_pressure;BME280_temperature;BME280_humidity;BME280_pressure;Samples;Min_cycle;Max_cycle;Signal;HPM_P1;HPM_P2
2022/10/23 00:02:03;;;;;;;;;;;;;;;20.83;54.73;101088.03;5097693;28;19927;-38
2022/10/23 00:04:29;;;;;;;;;;;;;;;20.83;54.96;101090.78;5119793;28;20393;-37
2022/10/23 00:06:54;;;;;;;;;;;;;;;20.83;54.70;101081.66;5112816;28;19923;-38
2022/10/23 00:09:21;;;;;;;;;;;;;;;20.83;54.83;101073.34;5119329;28;19928;-37
2022/10/23 00:11:47;;;;;;;;;;;;;;;20.83;54.72;101076.13;5097400;28;19962;-37
2022/10/23 00:14:13;;;;;;;;;;;;;;;20.84;54.82;101073.06;5115991;28;19943;-38
2022/10/23 00:16:38;;;;;;;;;;;;;;;20.84;54.91;101080.53;5097184;28;20260;-38
2022/10/23 00:19:04;;;;;;;;;;;;;;;20.83;54.96;101062.28;5120364;28;19931;-37
2022/10/23 00:21:29;;;;;;;;;;;;;;;20.83;54.67;101076.94;5116950;28;19923;-37
2022/10/23 00:23:55;;;;;;;;;;;;;;;20.83;54.79;101073.34;5098120;28;20295;-37
2022/10/23 00:26:21;;;;;;;;;;;;;;;20.83;54.79;101074.19;5126819;28;19931;-37
2022/10/23 00:28:47;;;;;;;;;;;;;;;20.84;54.83;101075.00;5122497;28;20367;-37
2022/10/23 00:31:13;;;;;;;;;;;;;;;20.83;55.00;101071.41;5120597;28;19985;-37
2022/10/23 00:33:38;;;;;;;;;;;;;;;20.83;54.82;101074.19;5097572;28;20433;-37
2022/10/23 00:36:05;;;;;;;;;;;;;;;20.84;54.78;101066.69;5117029;28;19945;-37
2022/10/23 00:38:30;;;;;;;;;;;;;;;20.83;54.83;101079.72;5115230;28;19980;-38
2022/10/23 00:40:56;;;;;;;;;;;;;;;20.83;54.83;101076.13;5096940;28;19923;-38
2022/10/23 00:43:22;;;;;;;;;;;;;;;20.83;54.86;101076.13;5114078;28;19984;-37
2022/10/23 00:45:48;;;;;;;;;;;;;;;20.84;54.70;101069.47;5114753;28;20079;-37
2022/10/23 00:48:14;;;;;;;;;;;;;;;20.83;54.79;101067.81;5116045;28;19928;-37
2022/10/23 00:50:39;;;;;;;;;;;;;;;20.83;54.77;101053.97;5119849;28;19924;-38
2022/10/23 00:53:05;;;;;;;;;;;;;;;20.83;54.77;101054.81;5092801;28;20277;-37
2022/10/23 00:55:31;;;;;;;;;;;;;;;20.83;54.84;101042.91;5117557;28;19943;-37
2022/10/23 00:57:56;;;;;;;;;;;;;;;20.83;55.05;101048.44;5096586;28;19963;-37
2022/10/23 01:00:24;;;;;;;;;;;;;;;20.84;54.86;101047.31;5121139;28;19930;-37
2022/10/23 01:02:50;;;;;;;;;;;;;;;20.83;54.69;101048.44;5119033;28;20026;-37
2022/10/23 01:05:15;;;;;;;;;;;;;;;20.84;54.82;101052.84;5093963;28;19923;-37
2022/10/23 01:07:44;;;;;;;;;;;;;;;20.83;54.84;101051.22;5115662;28;19938;-37
2022/10/23 01:10:12;;;;;;;;;;;;;;;20.83;54.84;101046.50;5094561;28;19936;-37
2022/10/23 01:12:44;;;;;;;;;;;;;;;20.83;54.72;101040.13;5111933;28;20342;-37
2022/10/23 01:15:15;;;;;;;;;;;;;;;20.83;54.78;101042.91;5117105;28;20040;-37
2022/10/23 01:17:42;;;;;;;;;;;;;;;20.84;54.85;101044.56;5110143;27;19965;-38
2022/10/23 01:20:18;;;;;;;;;;;;;;;20.84;55.00;101056.44;5102703;28;19938;-38
2022/10/23 01:23:03;;;;;;;;;;;;;;;20.83;54.77;101053.97;5117587;28;20023;-37
2022/10/23 01:25:35;;;;;;;;;;;;;;;20.83;54.93;101056.75;5126372;28;19923;-38
2022/10/23 01:28:02;;;;;;;;;;;;;;;20.83;54.78;101060.34;5127114;28;20119;-37
2022/10/23 01:30:27;;;;;;;;;;;;;;;20.83;54.77;101049.25;5125042;28;19936;-37
2022/10/23 01:32:55;;;;;;;;;;;;;;;20.84;54.73;101044.56;5120744;28;19937;-37
2022/10/23 01:35:24;;;;;;;;;;;;;;;20.83;54.74;101032.66;5125020;28;19989;-38
2022/10/23 01:37:53;;;;;;;;;;;;;;;20.82;54.74;101031.00;5114371;28;19955;-37
2022/10/23 01:40:21;;;;;;;;;;;;;;;20.83;54.85;101031.84;5125881;28;20045;-37
2022/10/23 01:42:48;;;;;;;;;;;;;;;20.83;54.74;101026.31;5127988;28;19970;-38
2022/10/23 01:45:17;;;;;;;;;;;;;;;20.82;54.87;101017.19;5117623;28;20395;-38
2022/10/23 01:47:42;;;;;;;;;;;;;;;20.83;54.70;101009.69;5119460;28;19934;-38
2022/10/23 01:50:08;;;;;;;;;;;;;;;20.83;54.82;101010.50;5119797;28;19939;-37
2022/10/23 01:52:34;;;;;;;;;;;;;;;20.84;54.73;101019.66;5113069;28;19928;-37
2022/10/23 01:55:00;;;;;;;;;;;;;;;20.82;54.83;101014.41;5116122;28;20958;-37
2022/10/23 01:57:26;;;;;;;;;;;;;;;20.82;54.84;101010.81;5098601;28;19924;-38
2022/10/23 01:59:53;;;;;;;;;;;;;;;20.83;54.75;101007.75;5123613;28;19978;-38
2022/10/23 02:02:19;;;;;;;;;;;;;;;20.82;54.68;100995.03;5115892;28;19967;-37
2022/10/23 02:05:05;;;;;;;;;;;;;;;20.84;54.68;100991.97;5115416;28;19939;-37
2022/10/23 02:07:30;;;;;;;;;;;;;;;20.83;54.77;100988.38;5104443;28;20064;-37
2022/10/23 02:09:56;;;;;;;;;;;;;;;20.84;54.65;100986.44;5123722;28;19927;-37
2022/10/23 02:12:41;;;;;;;;;;;;;;;20.83;54.77;100987.53;5116922;28;19934;-37
2022/10/23 02:15:11;;;;;;;;;;;;;;;20.82;54.92;100983.97;5103684;28;20362;-37
2022/10/23 02:17:43;;;;;;;;;;;;;;;20.83;54.83;100980.06;5119979;28;20072;-37
2022/10/23 02:20:27;;;;;;;;;;;;;;;20.82;54.88;100972.88;5119560;28;19931;-37
2022/10/23 02:22:56;;;;;;;;;;;;;;;20.83;54.73;100977.31;5100479;28;19977;-38
2022/10/23 02:25:24;;;;;;;;;;;;;;;20.84;54.66;100978.13;5121708;28;20010;-38
2022/10/23 02:27:51;;;;;;;;;;;;;;;20.83;54.74;100982.00;5127658;28;20064;-37
2022/10/23 02:30:17;;;;;;;;;;;;;;;20.84;54.89;100972.59;5123790;27;19969;-37
2022/10/23 02:32:45;;;;;;;;;;;;;;;20.83;54.59;100968.16;5116139;28;19959;-37
2022/10/23 02:35:10;;;;;;;;;;;;;;;20.83;54.63;100966.22;5096772;28;19965;-37
2022/10/23 02:37:36;;;;;;;;;;;;;;;20.83;54.67;100957.09;5122511;28;19924;-37
2022/10/23 02:40:02;;;;;;;;;;;;;;;20.83;54.74;100952.38;5101298;28;20387;-37
2022/10/23 02:42:29;;;;;;;;;;;;;;;20.83;54.87;100955.16;5113325;28;19959;-38
2022/10/23 02:45:14;;;;;;;;;;;;;;;20.83;54.76;100955.16;5116348;28;20023;-37
2022/10/23 02:50:49;;;;;;;;;;;;;;;20.84;54.73;100951.25;5162704;27;19926;-35
2022/10/23 02:53:20;;;;;;;;;;;;;;;20.83;54.74;100952.38;5150799;27;20081;-35
2022/10/23 02:58:31;;;;;;;;;;;;;;;20.83;54.84;100946.03;5159399;27;20463;-35
2022/10/23 03:01:02;;;;;;;;;;;;;;;20.83;54.66;100948.78;5155211;27;20377;-35
2022/10/23 03:03:30;;;;;;;;;;;;;;;20.83;54.86;100946.03;5162163;27;19942;-35
2022/10/23 03:05:56;;;;;;;;;;;;;;;20.83;54.76;100944.09;5139251;27;19955;-35
2022/10/23 03:08:21;;;;;;;;;;;;;;;20.83;54.72;100940.50;5155514;27;19976;-35
2022/10/23 03:10:47;;;;;;;;;;;;;;;20.83;54.78;100946.03;5161004;27;19942;-36
2022/10/23 03:13:13;;;;;;;;;;;;;;;20.83;54.79;100926.66;5140266;27;19931;-35
2022/10/23 03:15:39;;;;;;;;;;;;;;;20.83;54.77;100933.00;5140632;27;19924;-35
2022/10/23 03:18:04;;;;;;;;;;;;;;;20.83;54.71;100916.41;5134717;27;19928;-35
2022/10/23 03:20:30;;;;;;;;;;;;;;;20.82;54.75;100914.75;5135626;27;19931;-35
2022/10/23 03:22:56;;;;;;;;;;;;;;;20.83;54.67;100910.03;5140286;27;19931;-35
2022/10/23 03:25:21;;;;;;;;;;;;;;;20.83;54.77;100904.50;5136606;27;19924;-35
2022/10/23 03:27:47;;;;;;;;;;;;;;;20.83;54.79;100905.34;5143432;27;19937;-34
2022/10/23 03:30:14;;;;;;;;;;;;;;;20.83;54.82;100888.72;5135693;27;19930;-35
2022/10/23 03:32:39;;;;;;;;;;;;;;;20.84;54.78;100892.31;5139771;27;20371;-35
2022/10/23 03:35:06;;;;;;;;;;;;;;;20.83;54.78;100891.50;5137592;27;19931;-35
2022/10/23 03:37:31;;;;;;;;;;;;;;;20.84;54.75;100889.53;5136984;27;19928;-36
2022/10/23 03:39:57;;;;;;;;;;;;;;;20.83;54.89;100893.44;5138296;27;19934;-35
2022/10/23 03:42:22;;;;;;;;;;;;;;;20.83;54.76;100887.91;5139327;27;19998;-35
2022/10/23 03:44:48;;;;;;;;;;;;;;;20.83;54.70;100891.50;5134908;27;19931;-35
2022/10/23 03:47:13;;;;;;;;;;;;;;;20.84;54.73;100900.63;5137139;27;20391;-35
2022/10/23 03:49:39;;;;;;;;;;;;;;;20.83;54.65;100899.78;5133128;27;20363;-35
2022/10/23 03:52:05;;;;;;;;;;;;;;;20.83;54.92;100902.56;5135838;27;19935;-35
2022/10/23 03:54:31;;;;;;;;;;;;;;;20.84;54.85;100903.38;5115481;27;19924;-35
2022/10/23 03:56:56;;;;;;;;;;;;;;;20.84;54.67;100903.38;5132566;27;20012;-35
2022/10/23 03:59:23;;;;;;;;;;;;;;;20.83;54.66;100902.56;5137688;27;19938;-36
2022/10/23 04:01:48;;;;;;;;;;;;;;;20.83;54.82;100902.56;5116843;27;19931;-35
2022/10/23 04:04:14;;;;;;;;;;;;;;;20.83;54.79;100901.75;5140503;27;19948;-35
2022/10/23 04:06:40;;;;;;;;;;;;;;;20.84;54.68;100900.63;5117443;27;19923;-35
2022/10/23 04:09:05;;;;;;;;;;;;;;;20.84;54.60;100897.84;5127187;27;19924;-37
2022/10/23 04:11:31;;;;;;;;;;;;;;;20.84;54.65;100895.09;5123805;28;20367;-35
2022/10/23 04:13:57;;;;;;;;;;;;;;;20.83;54.83;100897.03;5111358;28;20030;-35
2022/10/23 04:16:23;;;;;;;;;;;;;;;20.83;54.80;100893.44;5124838;27;20379;-35
2022/10/23 04:18:48;;;;;;;;;;;;;;;20.83;54.77;100885.13;5104026;28;20432;-35
2022/10/23 04:21:14;;;;;;;;;;;;;;;20.81;54.70;100882.63;5123470;28;19935;-35
2022/10/23 04:23:40;;;;;;;;;;;;;;;20.83;54.65;100882.38;5126349;28;19930;-35
2022/10/23 04:26:05;;;;;;;;;;;;;;;20.83;54.52;100874.06;5119615;28;19924;-36
2022/10/23 04:28:31;;;;;;;;;;;;;;;20.83;54.86;100874.06;5122083;28;19923;-34
2022/10/23 04:30:56;;;;;;;;;;;;;;;20.83;54.78;100874.06;5120017;28;20297;-35
2022/10/23 04:33:22;;;;;;;;;;;;;;;20.83;54.86;100861.03;5123868;28;19932;-35
2022/10/23 04:35:47;;;;;;;;;;;;;;;20.83;54.67;100872.13;5121182;28;19931;-35
2022/10/23 04:38:13;;;;;;;;;;;;;;;20.83;54.77;100865.75;5122768;28;19960;-35
2022/10/23 04:40:38;;;;;;;;;;;;;;;20.83;54.83;100871.31;5121528;28;19927;-35
2022/10/23 04:43:04;;;;;;;;;;;;;;;20.83;54.71;100863.81;5121908;27;19924;-35
2022/10/23 04:45:30;;;;;;;;;;;;;;;20.83;54.63;100855.50;5118390;28;19931;-35
2022/10/23 04:47:55;;;;;;;;;;;;;;;20.84;54.60;100861.88;5124641;28;20371;-35
2022/10/23 04:50:21;;;;;;;;;;;;;;;20.83;54.78;100855.50;5123753;28;19942;-35
2022/10/23 04:52:46;;;;;;;;;;;;;;;20.84;54.76;100859.09;5121535;28;19930;-35
2022/10/23 04:55:12;;;;;;;;;;;;;;;20.82;54.77;100856.63;5120990;28;19928;-35
2022/10/23 04:57:37;;;;;;;;;;;;;;;20.82;54.70;100848.34;5120953;28;20351;-35
2022/10/23 05:00:03;;;;;;;;;;;;;;;20.84;54.65;100848.03;5123389;28;19930;-35
2022/10/23 05:02:29;;;;;;;;;;;;;;;20.83;54.76;100847.22;5106710;28;19923;-35
2022/10/23 05:04:54;;;;;;;;;;;;;;;20.83;54.66;100849.16;5122722;28;20291;-34
2022/10/23 05:07:20;;;;;;;;;;;;;;;20.83;54.80;100847.22;5123093;28;19942;-35
2022/10/23 05:09:47;;;;;;;;;;;;;;;20.84;54.77;100845.25;5124931;28;19930;-35
2022/10/23 05:12:12;;;;;;;;;;;;;;;20.84;54.72;100845.25;5125462;28;19936;-35
2022/10/23 05:14:38;;;;;;;;;;;;;;;20.83;54.65;100844.44;5123645;27;19930;-35
2022/10/23 05:17:06;;;;;;;;;;;;;;;20.84;54.73;100843.31;5123711;28;19948;-35
2022/10/23 05:19:33;;;;;;;;;;;;;;;20.84;54.81;100839.72;5123741;27;20030;-35
2022/10/23 05:21:59;;;;;;;;;;;;;;;20.83;54.75;100838.91;5104096;28;19958;-35
2022/10/23 05:24:25;;;;;;;;;;;;;;;20.83;54.65;100830.59;5117754;28;19934;-35
2022/10/23 05:26:51;;;;;;;;;;;;;;;20.84;54.72;100828.66;5120353;28;19924;-35
2022/10/23 05:29:18;;;;;;;;;;;;;;;20.83;54.68;100822.28;5117997;28;19959;-35
2022/10/23 05:31:44;;;;;;;;;;;;;;;20.84;54.73;100817.59;5121642;28;20062;-36
2022/10/23 05:34:10;;;;;;;;;;;;;;;20.83;54.82;100811.22;5122130;28;19924;-35
2022/10/23 05:36:38;;;;;;;;;;;;;;;20.83;54.87;100807.63;5100105;28;19924;-35
2022/10/23 05:39:04;;;;;;;;;;;;;;;20.83;54.60;100807.63;5118921;27;19980;-35
2022/10/23 05:41:30;;;;;;;;;;;;;;;20.83;54.68;100811.22;5119160;28;19931;-35
2022/10/23 05:43:55;;;;;;;;;;;;;;;20.83;54.60;100807.63;5123298;28;20382;-36
2022/10/23 05:46:22;;;;;;;;;;;;;;;20.83;54.68;100799.34;5122016;27;19931;-35
2022/10/23 05:48:49;;;;;;;;;;;;;;;20.83;54.56;100808.47;5123848;28;20018;-35
2022/10/23 05:51:19;;;;;;;;;;;;;;;20.83;54.61;100808.47;5124308;28;19927;-35
2022/10/23 05:53:44;;;;;;;;;;;;;;;20.83;54.63;100813.16;5125776;28;20431;-35
2022/10/23 05:56:10;;;;;;;;;;;;;;;20.82;54.59;100801.28;5120769;28;19923;-35
2022/10/23 05:58:35;;;;;;;;;;;;;;;20.83;54.83;100805.69;5125412;28;20047;-35
2022/10/23 06:01:05;;;;;;;;;;;;;;;20.83;54.63;100793.78;5118096;28;19924;-35
2022/10/23 06:03:30;;;;;;;;;;;;;;;20.83;54.72;100788.25;5121867;28;20371;-35
2022/10/23 06:05:56;;;;;;;;;;;;;;;20.83;54.80;100788.25;5124551;28;19931;-35
2022/10/23 06:08:23;;;;;;;;;;;;;;;20.83;54.59;100783.56;5121274;28;20000;-35
2022/10/23 06:10:48;;;;;;;;;;;;;;;20.83;54.74;100786.31;5119277;28;19985;-35
2022/10/23 06:13:14;;;;;;;;;;;;;;;20.83;54.69;100783.56;5106116;28;20421;-35
2022/10/23 06:15:40;;;;;;;;;;;;;;;20.84;54.75;100778.84;5120268;27;20406;-35
2022/10/23 06:18:05;;;;;;;;;;;;;;;20.82;54.66;100784.69;5118493;28;19928;-34
2022/10/23 06:20:33;;;;;;;;;;;;;;;20.83;54.66;100783.56;5121145;28;20329;-35
2022/10/23 06:22:59;;;;;;;;;;;;;;;20.84;54.65;100776.06;5101811;28;19966;-35
2022/10/23 06:25:24;;;;;;;;;;;;;;;20.82;54.75;100764.47;5124314;28;20318;-35
2022/10/23 06:27:50;;;;;;;;;;;;;;;20.83;54.77;100769.72;5121579;28;19924;-35
2022/10/23 06:30:15;;;;;;;;;;;;;;;20.82;54.66;100773.59;5115929;28;19931;-35
2022/10/23 06:32:41;;;;;;;;;;;;;;;20.83;54.72;100779.97;5117424;27;19927;-35
2022/10/23 06:35:07;;;;;;;;;;;;;;;20.83;54.63;100775.25;5119181;28;19931;-35
2022/10/23 06:37:33;;;;;;;;;;;;;;;20.82;54.63;100770.84;5120790;28;19984;-35
2022/10/23 06:39:58;;;;;;;;;;;;;;;20.83;54.70;100778.00;5121279;28;19976;-35
2022/10/23 06:42:24;;;;;;;;;;;;;;;20.83;54.69;100772.47;5102327;28;19924;-36
2022/10/23 06:44:49;;;;;;;;;;;;;;;20.83;54.68;100766.94;5116458;27;19980;-35
2022/10/23 06:47:15;;;;;;;;;;;;;;;20.82;54.57;100762.53;5121969;28;19934;-35
2022/10/23 06:49:45;;;;;;;;;;;;;;;20.83;54.74;100769.72;5118655;28;19935;-35
2022/10/23 06:52:11;;;;;;;;;;;;;;;20.83;54.72;100763.34;5120400;28;19928;-35
2022/10/23 06:54:53;;;;;;;;;;;;;;;20.82;54.72;100754.22;5114769;28;19923;-34
2022/10/23 06:57:19;;;;;;;;;;;;;;;20.83;54.75;100752.28;5122672;28;19931;-35
2022/10/23 06:59:44;;;;;;;;;;;;;;;20.82;54.74;100754.22;5120447;28;19924;-35
2022/10/23 07:02:10;;;;;;;;;;;;;;;20.83;54.71;100755.06;5121559;28;19960;-35
2022/10/23 07:04:36;;;;;;;;;;;;;;;20.83;54.61;100758.63;5120051;28;19931;-35
2022/10/23 07:07:01;;;;;;;;;;;;;;;20.82;54.61;100754.22;5117463;28;20424;-35
2022/10/23 07:09:27;;;;;;;;;;;;;;;20.82;54.71;100759.75;5119982;28;19927;-34
2022/10/23 07:11:52;;;;;;;;;;;;;;;20.83;54.72;100755.06;5120338;28;19923;-35
2022/10/23 07:14:18;;;;;;;;;;;;;;;20.84;54.74;100756.69;5119474;27;20313;-35
2022/10/23 07:16:43;;;;;;;;;;;;;;;20.83;54.59;100760.59;5116244;28;19923;-35
2022/10/23 07:19:09;;;;;;;;;;;;;;;20.82;54.69;100757.00;5114767;28;19928;-35
2022/10/23 07:21:34;;;;;;;;;;;;;;;20.82;54.67;100759.75;5122627;28;20148;-35
2022/10/23 07:24:00;;;;;;;;;;;;;;;20.83;54.74;100753.09;5120100;28;19924;-35
2022/10/23 07:26:26;;;;;;;;;;;;;;;20.83;54.79;100746.75;5115476;28;19927;-35
2022/10/23 07:28:54;;;;;;;;;;;;;;;20.83;54.65;100749.50;5119801;28;19924;-35
2022/10/23 07:31:20;;;;;;;;;;;;;;;20.83;54.70;100739.25;5100703;28;19958;-35
2022/10/23 07:33:52;;;;;;;;;;;;;;;20.83;54.76;100738.44;5102859;28;20264;-35
2022/10/23 07:36:18;;;;;;;;;;;;;;;20.84;54.57;100726.25;5101395;28;19969;-35
2022/10/23 07:38:43;;;;;;;;;;;;;;;20.82;54.62;100731.28;5100154;28;20018;-35
2022/10/23 07:41:09;;;;;;;;;;;;;;;20.82;54.61;100723.78;5120558;27;19923;-34
2022/10/23 07:43:37;;;;;;;;;;;;;;;20.83;54.53;100733.72;5122039;27;20384;-35
2022/10/23 07:46:03;;;;;;;;;;;;;;;20.83;54.62;100732.91;5128906;27;19923;-35
2022/10/23 07:48:28;;;;;;;;;;;;;;;20.82;54.57;100729.31;5123982;28;19924;-35
2022/10/23 07:50:59;;;;;;;;;;;;;;;20.83;54.68;100730.97;5102012;28;19931;-35
2022/10/23 07:53:25;;;;;;;;;;;;;;;20.83;54.65;100733.72;5105405;28;19977;-35
2022/10/23 07:55:52;;;;;;;;;;;;;;;20.82;54.70;100734.03;5125351;28;19932;-34
2022/10/23 07:58:17;;;;;;;;;;;;;;;20.84;54.58;100737.31;5126093;28;20022;-35
2022/10/23 08:00:44;;;;;;;;;;;;;;;20.83;54.70;100728.19;5126382;28;19931;-35
2022/10/23 08:03:11;;;;;;;;;;;;;;;20.83;54.61;100721.84;5122116;28;19974;-34
2022/10/23 08:05:37;;;;;;;;;;;;;;;20.83;54.71;100724.59;5127257;28;20010;-35
2022/10/23 08:08:02;;;;;;;;;;;;;;;20.83;54.54;100719.06;5120559;28;20283;-35
2022/10/23 08:10:28;;;;;;;;;;;;;;;20.83;54.57;100719.88;5125878;28;20002;-34
2022/10/23 08:12:53;;;;;;;;;;;;;;;20.83;54.60;100719.06;5123249;28;19949;-35
2022/10/23 08:15:19;;;;;;;;;;;;;;;20.82;54.66;100712.72;5124579;27;19931;-34
2022/10/23 08:17:44;;;;;;;;;;;;;;;20.83;54.58;100716.31;5120862;28;20390;-34
2022/10/23 08:20:12;;;;;;;;;;;;;;;20.82;54.58;100722.97;5122909;28;19935;-34
2022/10/23 08:22:38;;;;;;;;;;;;;;;20.83;54.52;100725.41;5122163;28;20382;-34
2022/10/23 08:25:04;;;;;;;;;;;;;;;20.83;54.62;100722.66;5120581;28;19932;-34
2022/10/23 08:27:29;;;;;;;;;;;;;;;20.83;54.61;100719.06;5121304;28;19923;-34
2022/10/23 08:29:55;;;;;;;;;;;;;;;20.83;54.62;100722.66;5124836;28;20286;-34
2022/10/23 08:32:20;;;;;;;;;;;;;;;20.83;54.59;100719.06;5125611;28;19935;-34
2022/10/23 08:34:46;;;;;;;;;;;;;;;20.83;54.55;100727.38;5122432;28;19939;-35
2022/10/23 08:37:11;;;;;;;;;;;;;;;20.83;54.54;100719.88;5122995;28;19924;-34
2022/10/23 08:39:37;;;;;;;;;;;;;;;20.82;54.63;100720.19;5122981;28;20295;-34
2022/10/23 08:42:03;;;;;;;;;;;;;;;20.83;54.55;100716.31;5119542;28;19924;-35
2022/10/23 08:44:33;;;;;;;;;;;;;;;20.82;54.54;100706.34;5117529;27;20340;-34
2022/10/23 08:49:38;;;;;;;;;;;;;;;20.83;54.55;100708.00;5176807;27;19925;-34
2022/10/23 08:52:07;;;;;;;;;;;;;;;20.82;54.61;100707.19;5140506;27;20030;-34
2022/10/23 08:54:44;;;;;;;;;;;;;;;20.83;54.46;100705.22;5159675;27;20025;-34
2022/10/23 08:57:12;;;;;;;;;;;;;;;20.82;54.71;100707.19;5141420;27;20069;-34
2022/10/23 08:59:40;;;;;;;;;;;;;;;20.82;54.61;100698.06;5158416;27;19974;-34
2022/10/23 09:04:41;;;;;;;;;;;;;;;20.83;54.68;100672.00;5175337;27;20293;-34
2022/10/23 09:07:11;;;;;;;;;;;;;;;20.82;54.62;100671.19;5168431;27;20351;-33
2022/10/23 09:09:43;;;;;;;;;;;;;;;20.83;54.49;100666.47;5151871;27;19938;-34
2022/10/23 09:12:11;;;;;;;;;;;;;;;20.82;55.02;100660.13;5169932;27;20066;-34
2022/10/23 09:14:43;;;;;;;;;;;;;;;20.83;54.57;100661.75;5170421;27;19942;-34
2022/10/23 09:17:21;;;;;;;;;;;;;;;20.82;54.52;100649.06;5157650;27;20437;-34
2022/10/23 09:19:46;;;;;;;;;;;;;;;20.83;54.62;100641.56;5159940;27;19962;-34
2022/10/23 09:22:12;;;;;;;;;;;;;;;20.83;54.59;100647.09;5156546;27;19939;-34
2022/10/23 09:24:40;;;;;;;;;;;;;;;20.83;54.62;100647.09;5158406;27;19939;-34
2022/10/23 09:27:08;;;;;;;;;;;;;;;20.82;54.68;100640.75;5138514;27;20383;-34
2022/10/23 09:29:34;;;;;;;;;;;;;;;20.83;54.80;100633.28;5134989;27;19977;-34
2022/10/23 09:32:01;;;;;;;;;;;;;;;20.82;54.63;100635.22;5152510;27;20017;-34
2022/10/23 09:34:28;;;;;;;;;;;;;;;20.82;54.63;100646.28;5137366;27;20348;-34
2022/10/23 09:36:54;;;;;;;;;;;;;;;20.83;54.69;100647.94;5153929;27;19942;-35
2022/10/23 09:39:29;;;;;;;;;;;;;;;20.83;54.54;100647.09;5155203;27;19942;-34
2022/10/23 09:41:55;;;;;;;;;;;;;;;20.82;54.61;100635.22;5136060;27;20007;-34
2022/10/23 09:44:23;;;;;;;;;;;;;;;20.82;54.55;100638.00;5134629;27;19923;-35
2022/10/23 09:46:50;;;;;;;;;;;;;;;20.82;54.57;100632.44;5144367;27;20413;-34
2022/10/23 09:49:28;;;;;;;;;;;;;;;20.82;54.46;100624.16;5149319;27;19927;-34
2022/10/23 09:51:59;;;;;;;;;;;;;;;20.83;54.57;100627.72;5134873;27;20030;-34
2022/10/23 09:54:24;;;;;;;;;;;;;;;20.83;54.53;100622.19;5140009;27;20478;-35
2022/10/23 09:56:50;;;;;;;;;;;;;;;20.82;54.68;100609.50;5136171;27;19975;-34
2022/10/23 09:59:20;;;;;;;;;;;;;;;20.83;54.46;100620.25;5135510;27;19931;-35
2022/10/23 10:04:40;;;;;;;;;;;;;;;20.83;54.54;100600.88;5169299;27;19929;-34
2022/10/23 10:07:22;;;;;;;;;;;;;;;20.82;54.67;100602.00;5129919;27;20340;-34
2022/10/23 10:09:48;;;;;;;;;;;;;;;20.83;54.48;100602.81;5129460;27;19954;-34
2022/10/23 10:12:33;;;;;;;;;;;;;;;20.83;54.55;100602.81;5153568;27;19923;-34
2022/10/23 10:15:02;;;;;;;;;;;;;;;20.82;54.72;100590.94;5126647;27;19971;-35
2022/10/23 10:17:48;;;;;;;;;;;;;;;20.83;54.62;100586.22;5128766;27;20018;-34
2022/10/23 10:20:23;;;;;;;;;;;;;;;20.83;54.58;100589.81;5127483;27;19962;-34
2022/10/23 10:22:52;;;;;;;;;;;;;;;20.83;54.53;100592.56;5125457;27;20011;-34
2022/10/23 10:25:24;;;;;;;;;;;;;;;20.83;54.49;100589.00;5125215;27;19935;-34
2022/10/23 10:27:52;;;;;;;;;;;;;;;20.83;54.52;100592.56;5126465;27;20338;-34
2022/10/23 10:30:19;;;;;;;;;;;;;;;20.83;54.46;100587.03;5126659;27;20382;-34
2022/10/23 10:32:50;;;;;;;;;;;;;;;20.83;54.56;100581.50;5122606;27;20414;-34
2022/10/23 10:35:19;;;;;;;;;;;;;;;20.83;54.58;100566.84;5126049;27;20012;-34
2022/10/23 10:37:56;;;;;;;;;;;;;;;20.83;54.43;100562.13;5125474;27;20004;-34
2022/10/23 10:40:27;;;;;;;;;;;;;;;20.82;54.55;100546.66;5131611;27;20382;-35
2022/10/23 10:43:03;;;;;;;;;;;;;;;20.83;54.50;100544.72;5124233;27;20164;-34
2022/10/23 10:45:37;;;;;;;;;;;;;;;20.82;54.49;100541.13;5125270;27;20732;-34
2022/10/23 10:48:23;;;;;;;;;;;;;;;20.82;54.45;100521.75;5123309;27;19973;-34
2022/10/23 10:50:51;;;;;;;;;;;;;;;20.82;54.58;100510.69;5129578;27;20010;-34
2022/10/23 10:55:53;;;;;;;;;;;;;;;20.82;54.51;100515.38;5179540;27;19933;-34
2022/10/23 10:58:20;;;;;;;;;;;;;;;20.82;54.54;100507.09;5160338;27;19958;-35
2022/10/23 11:00:46;;;;;;;;;;;;;;;20.82;54.45;100507.91;5160089;27;19958;-35
2022/10/23 11:03:31;;;;;;;;;;;;;;;20.83;54.63;100508.72;5155270;27;19930;-34
2022/10/23 11:06:05;;;;;;;;;;;;;;;20.83;54.54;100492.13;5143501;27;19946;-35
2022/10/23 11:08:33;;;;;;;;;;;;;;;20.83;54.42;100494.88;5161540;27;19962;-35
2022/10/23 11:11:20;;;;;;;;;;;;;;;20.83;54.53;100494.88;5140423;27;19927;-34
2022/10/23 11:13:46;;;;;;;;;;;;;;;20.83;54.50;100486.59;5155171;27;20026;-35
2022/10/23 11:16:13;;;;;;;;;;;;;;;20.82;54.55;100483.00;5163409;27;19983;-33
2022/10/23 11:18:41;;;;;;;;;;;;;;;20.83;54.57;100483.81;5165856;27;19966;-34
2022/10/23 11:21:10;;;;;;;;;;;;;;;20.83;54.45;100486.59;5148294;27;19961;-34
2022/10/23 11:23:41;;;;;;;;;;;;;;;20.83;54.49;100478.28;5166982;27;20010;-35
2022/10/23 11:26:13;;;;;;;;;;;;;;;20.82;54.49;100458.09;5166667;27;20003;-34
2022/10/23 11:28:51;;;;;;;;;;;;;;;20.82;54.51;100460.03;5165450;27;19991;-34
2022/10/23 11:31:21;;;;;;;;;;;;;;;20.82;54.41;100462.81;5165629;27;20445;-35
2022/10/23 11:33:54;;;;;;;;;;;;;;;20.82;54.46;100477.47;5165197;27;19931;-34
2022/10/23 11:36:20;;;;;;;;;;;;;;;20.83;54.61;100464.44;5165573;27;20013;-34
2022/10/23 11:38:46;;;;;;;;;;;;;;;20.83;54.45;100473.56;5145683;27;20738;-34
2022/10/23 11:41:32;;;;;;;;;;;;;;;20.82;54.67;100462.81;5164825;27;19971;-34
2022/10/23 11:44:02;;;;;;;;;;;;;;;20.83;54.59;100458.91;5166544;27;20353;-34
2022/10/23 11:46:28;;;;;;;;;;;;;;;20.81;54.45;100456.41;5146193;27;20365;-34
2022/10/23 11:48:54;;;;;;;;;;;;;;;20.83;54.50;100445.06;5166209;27;20019;-34
2022/10/23 11:51:36;;;;;;;;;;;;;;;20.82;54.50;100458.09;5165780;27;19923;-34
2022/10/23 11:56:53;;;;;;;;;;;;;;;20.83;54.53;100453.38;5156554;27;19930;-34
2022/10/23 11:59:27;;;;;;;;;;;;;;;20.82;54.36;100440.66;5145238;27;20299;-34
2022/10/23 12:01:52;;;;;;;;;;;;;;;20.82;54.52;100441.47;5144051;27;19966;-34
2022/10/23 12:04:20;;;;;;;;;;;;;;;20.82;54.43;100440.66;5143912;27;19931;-34
2022/10/23 12:06:50;;;;;;;;;;;;;;;20.82;54.43;100441.47;5143512;27;20013;-34
2022/10/23 12:09:36;;;;;;;;;;;;;;;20.82;54.40;100438.72;5142283;27;19966;-34
2022/10/23 12:14:44;;;;;;;;;;;;;;;20.83;54.56;100426.50;5174032;27;20297;-34
2022/10/23 12:17:19;;;;;;;;;;;;;;;20.83;54.61;100420.97;5159750;27;19962;-34
2022/10/23 12:19:46;;;;;;;;;;;;;;;20.83;54.43;100422.94;5135914;27;20011;-34
2022/10/23 12:22:12;;;;;;;;;;;;;;;20.82;54.53;100430.41;5137914;27;20018;-34
2022/10/23 12:24:46;;;;;;;;;;;;;;;20.83;54.44;100420.16;5158081;27;19934;-34
2022/10/23 12:27:14;;;;;;;;;;;;;;;20.82;54.34;100410.22;5154743;27;19966;-35
2022/10/23 12:30:00;;;;;;;;;;;;;;;20.83;54.52;100404.38;5156493;27;20013;-35
2022/10/23 12:32:29;;;;;;;;;;;;;;;20.83;54.38;100392.50;5145540;27;20818;-35
2022/10/23 12:35:05;;;;;;;;;;;;;;;20.83;54.50;100395.25;5156036;27;19978;-34
2022/10/23 12:37:53;;;;;;;;;;;;;;;20.82;54.45;100397.22;5154751;27;19974;-34
2022/10/23 12:40:18;;;;;;;;;;;;;;;20.82;54.45;100388.09;5144022;27;19966;-34
2022/10/23 12:42:53;;;;;;;;;;;;;;;20.82;54.43;100388.91;5156024;27;19923;-34
2022/10/23 12:45:20;;;;;;;;;;;;;;;20.83;54.50;100378.66;5155983;27;19965;-34
2022/10/23 12:47:45;;;;;;;;;;;;;;;20.82;54.49;100372.28;5159926;27;19962;-34
2022/10/23 12:50:16;;;;;;;;;;;;;;;20.83;54.59;100378.66;5138380;27;19976;-35
2022/10/23 12:52:49;;;;;;;;;;;;;;;20.83;54.49;100365.63;5158049;27;20018;-35
2022/10/23 12:55:14;;;;;;;;;;;;;;;20.83;54.43;100375.88;5159010;27;19923;-35
2022/10/23 12:57:40;;;;;;;;;;;;;;;20.83;54.44;100362.03;5155320;27;20419;-34
2022/10/23 13:00:09;;;;;;;;;;;;;;;20.82;54.37;100361.22;5158644;27;19934;-34
2022/10/23 13:02:34;;;;;;;;;;;;;;;20.82;54.42;100360.41;5151311;27;20409;-34